createdAt,value
2018-01-22T00:01:11.086Z,1.80
2018-01-22T00:03:14.405Z,1.80
2018-01-22T00:05:17.797Z,1.80
2018-01-22T00:07:21.277Z,1.80
2018-01-22T00:09:24.621Z,1.80
2018-01-22T00:11:27.965Z,1.80
2018-01-22T00:13:31.361Z,1.80
2018-01-22T00:15:35.308Z,1.80
2018-01-22T00:17:38.638Z,1.80
2018-01-22T00:19:41.959Z,1.80
2018-01-22T00:21:45.329Z,1.80
2018-01-22T00:23:48.732Z,1.80
2018-01-22T00:25:52.006Z,1.80
2018-01-22T00:27:55.387Z,1.80
2018-01-22T00:29:58.794Z,1.80
2018-01-22T00:32:02.120Z,1.80
2018-01-22T00:34:10.402Z,1.80
2018-01-22T00:36:13.846Z,1.80
2018-01-22T00:38:17.967Z,1.70
2018-01-22T00:40:21.334Z,1.70
2018-01-22T00:42:24.667Z,1.70
2018-01-22T00:44:28.020Z,1.70
2018-01-22T00:46:32.113Z,1.70
2018-01-22T00:48:35.539Z,1.70
2018-01-22T00:50:39.672Z,1.70
2018-01-22T00:52:43.026Z,1.70
2018-01-22T00:54:47.122Z,1.70
2018-01-22T00:56:51.265Z,1.70
2018-01-22T00:58:54.610Z,1.70
2018-01-22T01:00:58.220Z,1.80
2018-01-22T01:03:01.560Z,1.70
2018-01-22T01:05:04.906Z,1.70
2018-01-22T01:07:08.214Z,1.70
2018-01-22T01:09:12.425Z,1.70
2018-01-22T01:11:15.891Z,1.70
2018-01-22T01:13:19.234Z,1.70
2018-01-22T01:15:22.625Z,1.70
2018-01-22T01:17:25.942Z,1.70
2018-01-22T01:19:29.302Z,1.70
2018-01-22T01:21:32.658Z,1.70
2018-01-22T01:23:35.993Z,1.70
2018-01-22T01:25:40.080Z,1.70
2018-01-22T01:27:43.402Z,1.70
2018-01-22T01:29:46.709Z,1.70
2018-01-22T01:31:50.084Z,1.70
2018-01-22T01:33:53.399Z,1.70
2018-01-22T01:35:56.720Z,1.70
2018-01-22T01:38:00.817Z,1.70
2018-01-22T01:40:04.907Z,1.70
2018-01-22T01:42:08.237Z,1.70
2018-01-22T01:44:12.352Z,1.70
2018-01-22T01:46:15.698Z,1.80
2018-01-22T01:48:19.037Z,1.80
2018-01-22T01:50:22.359Z,1.70
2018-01-22T01:52:25.668Z,1.70
2018-01-22T01:54:29.029Z,1.70
2018-01-22T01:56:32.469Z,1.70
2018-01-22T01:58:35.902Z,1.80
2018-01-22T02:00:40.409Z,1.70
2018-01-22T02:02:44.487Z,1.70
2018-01-22T02:04:48.598Z,1.70
2018-01-22T02:06:51.936Z,1.70
2018-01-22T02:08:55.263Z,1.70
2018-01-22T02:10:58.562Z,1.60
2018-01-22T02:13:01.937Z,1.70
2018-01-22T02:15:05.257Z,1.70
2018-01-22T02:17:08.592Z,1.70
2018-01-22T02:19:11.946Z,1.70
2018-01-22T02:21:16.037Z,1.70
2018-01-22T02:23:19.390Z,1.60
2018-01-22T02:25:22.688Z,1.70
2018-01-22T02:27:26.001Z,1.70
2018-01-22T02:29:29.318Z,1.60
2018-01-22T02:31:32.653Z,1.60
2018-01-22T02:33:35.978Z,1.60
2018-01-22T02:35:39.325Z,1.60
2018-01-22T02:37:42.634Z,1.50
2018-01-22T02:39:45.990Z,1.50
2018-01-22T02:41:49.322Z,1.50
2018-01-22T02:43:52.664Z,1.60
2018-01-22T02:45:56.779Z,1.60
2018-01-22T02:48:00.136Z,1.60
2018-01-22T02:50:03.449Z,1.60
2018-01-22T02:52:06.795Z,1.60
2018-01-22T02:54:10.110Z,1.60
2018-01-22T02:56:13.422Z,1.70
2018-01-22T02:58:16.743Z,1.70
2018-01-22T03:00:20.070Z,1.70
2018-01-22T03:02:23.388Z,1.70
2018-01-22T03:04:26.722Z,1.70
2018-01-22T03:06:30.090Z,1.70
2018-01-22T03:08:33.457Z,1.70
2018-01-22T03:10:36.819Z,1.70
2018-01-22T03:12:40.137Z,1.70
2018-01-22T03:14:43.437Z,1.70
2018-01-22T03:16:46.802Z,1.70
2018-01-22T03:18:50.120Z,1.70
2018-01-22T03:20:53.482Z,1.70
2018-01-22T03:22:56.816Z,1.70
2018-01-22T03:25:00.892Z,1.70
2018-01-22T03:27:04.234Z,1.70
2018-01-22T03:29:07.549Z,1.70
2018-01-22T03:31:10.885Z,1.70
2018-01-22T03:33:14.981Z,1.70
2018-01-22T03:35:18.295Z,1.70
2018-01-22T03:37:22.403Z,1.70
2018-01-22T03:39:26.479Z,1.80
2018-01-22T03:41:29.797Z,1.80
2018-01-22T03:43:33.163Z,1.80
2018-01-22T03:45:36.484Z,1.80
2018-01-22T03:47:40.604Z,1.70
2018-01-22T03:49:43.944Z,1.80
2018-01-22T03:51:47.261Z,1.80
2018-01-22T03:53:50.594Z,1.70
2018-01-22T03:55:53.935Z,1.70
2018-01-22T03:57:57.253Z,1.80
2018-01-22T04:00:01.362Z,1.70
2018-01-22T04:02:04.726Z,1.70
2018-01-22T04:04:08.045Z,1.70
2018-01-22T04:06:12.247Z,1.70
2018-01-22T04:08:16.337Z,1.80
2018-01-22T04:10:19.673Z,1.80
2018-01-22T04:12:23.021Z,1.70
2018-01-22T04:14:26.330Z,1.80
2018-01-22T04:16:30.408Z,1.80
2018-01-22T04:18:33.750Z,1.70
2018-01-22T04:20:37.133Z,1.80
2018-01-22T04:22:40.450Z,1.80
2018-01-22T04:24:43.789Z,1.80
2018-01-22T04:26:47.098Z,1.80
2018-01-22T04:28:51.202Z,1.80
2018-01-22T04:30:55.283Z,1.80
2018-01-22T04:32:58.598Z,1.80
2018-01-22T04:35:02.683Z,1.80
2018-01-22T04:37:06.026Z,1.80
2018-01-22T04:39:09.339Z,1.80
2018-01-22T04:41:12.647Z,1.80
2018-01-22T04:43:15.960Z,1.80
2018-01-22T04:45:19.275Z,1.70
2018-01-22T04:47:22.605Z,1.80
2018-01-22T04:49:25.976Z,1.80
2018-01-22T04:51:29.289Z,1.80
2018-01-22T04:53:32.609Z,1.70
2018-01-22T04:55:35.951Z,1.70
2018-01-22T04:57:39.315Z,1.70
2018-01-22T04:59:43.425Z,1.70
2018-01-22T05:01:47.521Z,1.60
2018-01-22T05:03:51.620Z,1.60
2018-01-22T05:05:54.985Z,1.60
2018-01-22T05:07:58.314Z,1.50
2018-01-22T05:10:02.406Z,1.50
2018-01-22T05:12:05.747Z,1.50
2018-01-22T05:14:09.137Z,1.60
2018-01-22T05:16:12.453Z,1.60
2018-01-22T05:18:15.778Z,1.60
2018-01-22T05:20:19.887Z,1.60
2018-01-22T05:22:23.206Z,1.60
2018-01-22T05:24:26.539Z,1.60
2018-01-22T05:26:30.046Z,1.60
2018-01-22T05:28:33.374Z,1.60
2018-01-22T05:30:37.526Z,1.60
2018-01-22T05:32:40.848Z,1.60
2018-01-22T05:34:44.181Z,1.60
2018-01-22T05:36:48.293Z,1.60
2018-01-22T05:38:51.632Z,1.60
2018-01-22T05:40:54.977Z,1.60
2018-01-22T05:42:58.341Z,1.60
2018-01-22T05:45:02.434Z,1.60
2018-01-22T05:47:05.767Z,1.60
2018-01-22T05:49:09.207Z,1.60
2018-01-22T05:51:13.333Z,1.70
2018-01-22T05:53:16.638Z,1.60
2018-01-22T05:55:20.714Z,1.70
2018-01-22T05:57:24.040Z,1.70
2018-01-22T05:59:27.397Z,1.70
2018-01-22T06:01:30.732Z,1.70
2018-01-22T06:03:34.088Z,1.70
2018-01-22T06:05:37.539Z,1.70
2018-01-22T06:07:40.889Z,1.70
2018-01-22T06:09:44.997Z,1.80
2018-01-22T06:11:48.338Z,1.70
2018-01-22T06:13:51.656Z,1.80
2018-01-22T06:15:54.970Z,1.80
2018-01-22T06:17:58.321Z,1.80
2018-01-22T06:20:01.658Z,1.70
2018-01-22T06:22:04.994Z,1.70
2018-01-22T06:24:08.440Z,1.70
2018-01-22T06:26:12.692Z,1.70
2018-01-22T06:28:16.027Z,1.70
2018-01-22T06:30:19.429Z,1.70
2018-01-22T06:32:22.750Z,1.70
2018-01-22T06:34:26.101Z,1.70
2018-01-22T06:36:30.300Z,1.70
2018-01-22T06:38:33.654Z,1.60
2018-01-22T06:40:36.974Z,1.60
2018-01-22T06:42:40.313Z,1.70
2018-01-22T06:44:44.384Z,1.60
2018-01-22T06:46:47.745Z,1.60
2018-01-22T06:48:51.976Z,1.70
2018-01-22T06:50:55.293Z,1.70
2018-01-22T06:52:58.608Z,1.70
2018-01-22T06:55:02.698Z,1.80
2018-01-22T06:57:06.031Z,1.80
2018-01-22T06:59:10.104Z,1.80
2018-01-22T07:01:14.209Z,1.80
2018-01-22T07:03:17.530Z,1.80
2018-01-22T07:05:20.886Z,1.80
2018-01-22T07:07:24.212Z,1.80
2018-01-22T07:09:27.533Z,1.80
2018-01-22T07:11:31.088Z,1.80
2018-01-22T07:13:34.491Z,1.80
2018-01-22T07:15:38.689Z,1.80
2018-01-22T07:17:42.097Z,1.80
2018-01-22T07:19:45.465Z,1.90
2018-01-22T07:21:50.129Z,1.90
2018-01-22T07:23:53.742Z,1.90
2018-01-22T07:25:57.800Z,1.90
2018-01-22T07:28:01.914Z,1.90
2018-01-22T07:30:06.513Z,1.90
2018-01-22T07:32:09.833Z,1.90
2018-01-22T07:34:13.159Z,2.00
2018-01-22T07:36:16.558Z,2.00
2018-01-22T07:38:20.016Z,1.90
2018-01-22T07:40:24.192Z,2.00
2018-01-22T07:42:27.538Z,2.00
2018-01-22T07:44:31.641Z,2.00
2018-01-22T07:46:35.525Z,2.00
2018-01-22T07:48:39.989Z,1.90
2018-01-22T07:50:43.317Z,1.90
2018-01-22T07:52:47.953Z,1.90
2018-01-22T07:54:52.787Z,1.90
2018-01-22T07:56:56.457Z,1.90
2018-01-22T07:58:59.805Z,2.00
2018-01-22T08:01:04.413Z,2.00
2018-01-22T08:03:07.757Z,2.00
2018-01-22T08:05:11.995Z,2.00
2018-01-22T08:07:16.136Z,2.00
2018-01-22T08:09:20.376Z,2.00
2018-01-22T08:11:24.453Z,2.10
2018-01-22T08:13:27.850Z,2.10
2018-01-22T08:15:31.393Z,2.20
2018-01-22T08:17:36.393Z,2.20
2018-01-22T08:19:39.720Z,2.20
2018-01-22T08:21:43.959Z,2.20
2018-01-22T08:23:47.997Z,2.20
2018-01-22T08:25:51.376Z,2.30
2018-01-22T08:27:56.700Z,2.30
2018-01-22T08:30:00.068Z,2.30
2018-01-22T08:32:05.148Z,2.40
2018-01-22T08:34:08.530Z,2.40
2018-01-22T08:36:11.870Z,2.50
2018-01-22T08:38:16.446Z,2.50
2018-01-22T08:40:20.777Z,2.50
2018-01-22T08:42:25.886Z,2.60
2018-01-22T08:44:29.228Z,2.70
2018-01-22T08:46:34.170Z,2.70
2018-01-22T08:48:38.282Z,2.70
2018-01-22T08:50:42.451Z,2.70
2018-01-22T08:52:45.795Z,2.70
2018-01-22T08:54:49.901Z,2.80
2018-01-22T08:56:55.449Z,2.90
2018-01-22T08:58:58.889Z,2.90
2018-01-22T09:01:02.232Z,2.90
2018-01-22T09:03:05.557Z,3.00
2018-01-22T09:05:08.894Z,3.00
2018-01-22T09:07:13.023Z,3.20
2018-01-22T09:09:16.358Z,3.20
2018-01-22T09:11:19.706Z,3.20
2018-01-22T09:13:23.061Z,3.30
2018-01-22T09:15:26.388Z,3.30
2018-01-22T09:17:29.735Z,3.30
2018-01-22T09:19:33.089Z,3.30
2018-01-22T09:21:36.438Z,3.40
2018-01-22T09:23:40.586Z,3.40
2018-01-22T09:25:43.911Z,3.40
2018-01-22T09:27:47.299Z,3.40
2018-01-22T09:29:50.653Z,3.40
2018-01-22T09:31:54.042Z,3.50
2018-01-22T09:33:57.683Z,3.50
2018-01-22T09:36:01.075Z,3.50
2018-01-22T09:38:04.467Z,3.60
2018-01-22T09:40:07.857Z,3.70
2018-01-22T09:42:13.403Z,3.70
2018-01-22T09:44:17.054Z,3.80
2018-01-22T09:46:20.433Z,3.80
2018-01-22T09:48:23.947Z,3.90
2018-01-22T09:50:27.332Z,3.90
2018-01-22T09:52:30.688Z,3.90
2018-01-22T09:54:34.022Z,3.90
2018-01-22T09:56:37.481Z,4.00
2018-01-22T09:58:40.880Z,4.00
2018-01-22T10:00:44.288Z,4.10
2018-01-22T10:02:47.795Z,4.20
2018-01-22T10:04:51.142Z,4.20
2018-01-22T10:06:54.538Z,4.20
2018-01-22T10:08:58.703Z,4.40
2018-01-22T10:11:02.354Z,4.30
2018-01-22T10:13:07.351Z,4.40
2018-01-22T10:15:10.767Z,4.40
2018-01-22T10:17:14.604Z,4.50
2018-01-22T10:19:18.018Z,4.60
2018-01-22T10:21:21.537Z,4.60
2018-01-22T10:23:24.933Z,4.70
2018-01-22T10:25:28.279Z,4.70
2018-01-22T10:27:31.620Z,4.80
2018-01-22T10:29:34.961Z,4.90
2018-01-22T10:31:38.327Z,4.90
2018-01-22T10:33:42.267Z,4.90
2018-01-22T10:35:46.417Z,5.00
2018-01-22T10:37:49.818Z,5.00
2018-01-22T10:39:53.234Z,5.10
2018-01-22T10:41:56.625Z,5.20
2018-01-22T10:44:01.478Z,5.30
2018-01-22T10:46:04.812Z,5.30
2018-01-22T10:48:08.141Z,5.40
2018-01-22T10:50:12.281Z,5.50
2018-01-22T10:52:15.725Z,5.50
2018-01-22T10:54:19.848Z,5.60
2018-01-22T10:56:23.167Z,5.60
2018-01-22T10:58:27.643Z,5.60
2018-01-22T11:00:30.987Z,5.70
2018-01-22T11:02:34.346Z,5.70
2018-01-22T11:04:38.497Z,5.80
2018-01-22T11:06:41.969Z,5.80
2018-01-22T11:08:45.309Z,5.80
2018-01-22T11:10:48.635Z,5.80
2018-01-22T11:12:52.087Z,5.90
2018-01-22T11:14:55.406Z,6.00
2018-01-22T11:16:58.735Z,6.00
2018-01-22T11:19:02.065Z,6.10
2018-01-22T11:21:05.524Z,6.20
2018-01-22T11:23:10.017Z,6.40
2018-01-22T11:25:14.395Z,6.40
2018-01-22T11:27:18.427Z,6.40
2018-01-22T11:29:22.553Z,6.60
2018-01-22T11:31:27.335Z,6.50
2018-01-22T11:33:34.595Z,6.70
2018-01-22T11:35:38.498Z,6.70
2018-01-22T11:37:41.841Z,6.80
2018-01-22T11:39:45.926Z,7.00
2018-01-22T11:41:49.524Z,7.00
2018-01-22T11:43:53.666Z,7.10
2018-01-22T11:45:58.055Z,7.10
2018-01-22T11:48:02.186Z,7.20
2018-01-22T11:50:06.662Z,7.20
2018-01-22T11:52:10.018Z,7.20
2018-01-22T11:54:13.755Z,7.20
2018-01-22T11:56:17.757Z,7.20
2018-01-22T11:58:21.987Z,7.20
2018-01-22T12:00:27.028Z,7.30
2018-01-22T12:02:31.292Z,7.30
2018-01-22T12:04:34.662Z,7.30
2018-01-22T12:06:38.945Z,7.20
2018-01-22T12:08:43.065Z,7.20
2018-01-22T12:10:47.199Z,7.20
2018-01-22T12:12:50.534Z,7.20
2018-01-22T12:14:53.919Z,7.20
2018-01-22T12:16:57.259Z,7.20
2018-01-22T12:19:01.403Z,7.20
2018-01-22T12:21:05.050Z,7.20
2018-01-22T12:23:09.181Z,7.20
2018-01-22T12:25:14.124Z,7.20
2018-01-22T12:27:18.448Z,7.20
2018-01-22T12:29:22.730Z,7.20
2018-01-22T12:31:28.134Z,7.30
2018-01-22T12:33:31.479Z,7.20
2018-01-22T12:35:35.691Z,7.30
2018-01-22T12:37:39.824Z,7.40
2018-01-22T12:39:43.221Z,7.30
2018-01-22T12:41:46.719Z,7.40
2018-01-22T12:43:51.156Z,7.40
2018-01-22T12:45:54.524Z,7.40
2018-01-22T12:47:57.858Z,7.50
2018-01-22T12:50:01.189Z,7.50
2018-01-22T12:52:05.409Z,7.60
2018-01-22T12:54:09.500Z,7.60
2018-01-22T12:56:12.926Z,7.60
2018-01-22T12:58:16.433Z,7.70
2018-01-22T13:00:19.788Z,7.70
2018-01-22T13:02:23.909Z,7.70
2018-01-22T13:04:27.251Z,7.70
2018-01-22T13:06:31.348Z,7.70
2018-01-22T13:08:34.723Z,7.80
2018-01-22T13:10:38.190Z,7.80
2018-01-22T13:12:41.557Z,7.80
2018-01-22T13:14:44.926Z,7.80
2018-01-22T13:16:48.268Z,7.80
2018-01-22T13:18:51.617Z,7.90
2018-01-22T13:20:55.753Z,7.90
2018-01-22T13:22:59.150Z,7.80
2018-01-22T13:25:03.412Z,7.90
2018-01-22T13:27:07.844Z,7.90
2018-01-22T13:29:11.186Z,7.90
2018-01-22T13:31:14.547Z,8.00
2018-01-22T13:33:17.924Z,8.00
2018-01-22T13:35:22.024Z,8.00
2018-01-22T13:37:25.370Z,8.00
2018-01-22T13:39:28.720Z,8.00
2018-01-22T13:41:32.837Z,8.00
2018-01-22T13:43:36.261Z,8.00
2018-01-22T13:45:39.590Z,8.00
2018-01-22T13:47:42.902Z,8.00
2018-01-22T13:49:46.753Z,8.00
2018-01-22T13:51:50.097Z,8.10
2018-01-22T13:53:54.261Z,8.10
2018-01-22T13:55:57.754Z,8.00
2018-01-22T13:58:02.626Z,8.00
2018-01-22T14:00:06.119Z,8.00
2018-01-22T14:02:10.260Z,8.00
2018-01-22T14:04:13.617Z,8.00
2018-01-22T14:06:16.942Z,8.00
2018-01-22T14:08:21.505Z,8.00
2018-01-22T14:10:25.460Z,7.90
2018-01-22T14:12:28.902Z,7.90
2018-01-22T14:14:33.180Z,7.90
2018-01-22T14:16:36.640Z,7.90
2018-01-22T14:18:40.055Z,7.90
2018-01-22T14:20:43.456Z,7.90
2018-01-22T14:22:47.133Z,7.90
2018-01-22T14:24:51.376Z,7.90
2018-01-22T14:26:54.705Z,7.90
2018-01-22T14:28:58.063Z,7.90
2018-01-22T14:31:01.484Z,7.90
2018-01-22T14:33:05.604Z,7.80
2018-01-22T14:35:09.753Z,7.80
2018-01-22T14:37:13.102Z,7.80
2018-01-22T14:39:16.442Z,7.80
2018-01-22T14:41:19.994Z,7.80
2018-01-22T14:43:23.904Z,7.80
2018-01-22T14:45:27.487Z,7.80
2018-01-22T14:47:30.841Z,7.80
2018-01-22T14:49:34.255Z,7.80
2018-01-22T14:51:37.844Z,7.80
2018-01-22T14:53:41.270Z,7.80
2018-01-22T14:55:44.715Z,7.80
2018-01-22T14:57:49.029Z,7.80
2018-01-22T14:59:52.421Z,7.80
2018-01-22T15:01:57.078Z,7.80
2018-01-22T15:04:01.359Z,7.80
2018-01-22T15:06:05.521Z,7.80
2018-01-22T15:08:08.849Z,7.80
2018-01-22T15:10:12.192Z,7.90
2018-01-22T15:12:16.369Z,7.90
2018-01-22T15:14:19.861Z,7.90
2018-01-22T15:16:23.231Z,7.90
2018-01-22T15:18:26.668Z,7.90
2018-01-22T15:20:30.005Z,7.90
2018-01-22T15:22:33.491Z,7.90
2018-01-22T15:24:37.120Z,7.90
2018-01-22T15:26:41.531Z,7.90
2018-01-22T15:28:45.105Z,7.90
2018-01-22T15:30:48.792Z,7.80
2018-01-22T15:32:52.433Z,7.80
2018-01-22T15:34:55.882Z,7.80
2018-01-22T15:36:59.254Z,7.70
2018-01-22T15:39:02.644Z,7.70
2018-01-22T15:41:06.296Z,7.70
2018-01-22T15:43:09.629Z,7.60
2018-01-22T15:45:13.058Z,7.60
2018-01-22T15:47:17.209Z,7.60
2018-01-22T15:49:20.650Z,7.60
2018-01-22T15:51:24.070Z,7.60
2018-01-22T15:53:29.265Z,7.60
2018-01-22T15:55:33.518Z,7.50
2018-01-22T15:57:37.652Z,7.50
2018-01-22T15:59:42.174Z,7.50
2018-01-22T16:01:45.509Z,7.50
2018-01-22T16:03:48.857Z,7.40
2018-01-22T16:05:52.235Z,7.40
2018-01-22T16:07:55.655Z,7.40
2018-01-22T16:09:59.002Z,7.40
2018-01-22T16:12:03.118Z,7.40
2018-01-22T16:14:07.741Z,7.40
2018-01-22T16:16:11.960Z,7.40
2018-01-22T16:18:15.345Z,7.30
2018-01-22T16:20:19.448Z,7.30
2018-01-22T16:22:22.794Z,7.30
2018-01-22T16:24:26.214Z,7.30
2018-01-22T16:26:29.796Z,7.30
2018-01-22T16:28:33.384Z,7.30
2018-01-22T16:30:37.820Z,7.30
2018-01-22T16:32:42.067Z,7.30
2018-01-22T16:34:45.428Z,7.30
2018-01-22T16:36:49.815Z,7.30
2018-01-22T16:38:53.999Z,7.20
2018-01-22T16:40:59.490Z,7.20
2018-01-22T16:43:02.833Z,7.20
2018-01-22T16:45:06.742Z,7.20
2018-01-22T16:47:16.816Z,7.10
2018-01-22T16:49:20.233Z,7.10
2018-01-22T16:51:23.802Z,7.10
2018-01-22T16:53:27.172Z,7.10
2018-01-22T16:55:30.610Z,7.00
2018-01-22T16:57:34.756Z,7.00
2018-01-22T16:59:39.118Z,7.00
2018-01-22T17:01:42.607Z,7.00
2018-01-22T17:03:46.732Z,7.00
2018-01-22T17:05:50.065Z,7.00
2018-01-22T17:07:53.766Z,7.00
2018-01-22T17:09:58.158Z,7.00
2018-01-22T17:12:01.607Z,6.90
2018-01-22T17:14:05.095Z,6.90
2018-01-22T17:16:08.666Z,6.90
2018-01-22T17:18:13.091Z,6.90
2018-01-22T17:20:17.333Z,6.90
2018-01-22T17:22:20.657Z,6.80
2018-01-22T17:24:24.429Z,6.80
2018-01-22T17:26:28.626Z,6.80
2018-01-22T17:28:32.308Z,6.80
2018-01-22T17:30:36.874Z,6.70
2018-01-22T17:32:41.920Z,6.70
2018-01-22T17:34:46.186Z,6.70
2018-01-22T17:36:49.570Z,6.60
2018-01-22T17:38:52.919Z,6.60
2018-01-22T17:40:58.081Z,6.60
2018-01-22T17:43:05.169Z,6.60
2018-01-22T17:45:09.253Z,6.60
2018-01-22T17:47:13.570Z,6.60
2018-01-22T17:49:21.734Z,6.60
2018-01-22T17:51:27.007Z,6.60
2018-01-22T17:53:30.406Z,6.60
2018-01-22T17:55:34.891Z,6.60
2018-01-22T17:57:42.566Z,6.60
2018-01-22T18:01:56.859Z,6.60
2018-01-22T18:04:00.207Z,6.60
2018-01-22T18:06:04.416Z,6.60
2018-01-22T18:08:08.819Z,6.60
2018-01-22T18:10:12.483Z,6.70
2018-01-22T18:12:17.291Z,6.60
2018-01-22T18:14:22.126Z,6.60
2018-01-22T18:16:26.397Z,6.60
2018-01-22T18:18:30.791Z,6.60
2018-01-22T18:20:34.495Z,6.60
2018-01-22T18:22:50.495Z,6.60
2018-01-22T18:24:55.343Z,6.60
2018-01-22T18:26:58.650Z,6.60
2018-01-22T18:29:02.559Z,6.60
2018-01-22T18:31:06.112Z,6.60
2018-01-22T18:33:11.041Z,6.60
2018-01-22T18:35:14.660Z,6.60
2018-01-22T18:37:19.399Z,6.60
2018-01-22T18:39:23.719Z,6.60
2018-01-22T18:41:27.906Z,6.60
2018-01-22T18:43:31.306Z,6.50
2018-01-22T18:45:38.330Z,6.50
2018-01-22T18:47:43.687Z,6.50
2018-01-22T18:49:47.059Z,6.50
2018-01-22T18:51:51.855Z,6.40
2018-01-22T18:53:56.845Z,6.40
2018-01-22T18:56:02.452Z,6.40
2018-01-22T18:58:08.211Z,6.30
2018-01-22T19:00:11.755Z,6.30
2018-01-22T19:02:15.183Z,6.30
2018-01-22T19:04:19.260Z,6.30
2018-01-22T19:06:23.986Z,6.30
2018-01-22T19:08:28.130Z,6.20
2018-01-22T19:10:33.279Z,6.20
2018-01-22T19:12:38.230Z,6.20
2018-01-22T19:14:42.056Z,6.20
2018-01-22T19:16:45.866Z,6.20
2018-01-22T19:18:49.421Z,6.20
2018-01-22T19:20:54.122Z,6.20
2018-01-22T19:22:58.480Z,6.30
2018-01-22T19:25:02.227Z,6.30
2018-01-22T19:27:06.445Z,6.30
2018-01-22T19:29:10.631Z,6.20
2018-01-22T19:31:14.919Z,6.30
2018-01-22T19:33:19.755Z,6.30
2018-01-22T19:35:24.492Z,6.30
2018-01-22T19:37:29.163Z,6.30
2018-01-22T19:39:34.427Z,6.40
2018-01-22T19:41:38.058Z,6.40
2018-01-22T19:43:43.504Z,6.40
2018-01-22T19:45:48.442Z,6.40
2018-01-22T19:47:52.459Z,6.40
2018-01-22T19:49:56.546Z,6.30
2018-01-22T19:52:00.647Z,6.30
2018-01-22T19:54:04.736Z,6.30
2018-01-22T19:56:08.635Z,6.30
2018-01-22T19:58:15.498Z,6.20
2018-01-22T20:00:20.054Z,6.20
2018-01-22T20:02:23.535Z,6.20
2018-01-22T20:04:26.857Z,6.20
2018-01-22T20:06:30.279Z,6.20
2018-01-22T20:08:33.661Z,6.20
2018-01-22T20:10:37.000Z,6.20
2018-01-22T20:12:40.420Z,6.20
2018-01-22T20:14:43.904Z,6.20
2018-01-22T20:16:47.244Z,6.20
2018-01-22T20:18:50.565Z,6.20
2018-01-22T20:20:53.893Z,6.20
2018-01-22T20:22:57.977Z,6.20
2018-01-22T20:25:01.309Z,6.20
2018-01-22T20:27:04.693Z,6.20
2018-01-22T20:29:08.792Z,6.20
2018-01-22T20:31:12.882Z,6.20
2018-01-22T20:33:16.997Z,6.20
2018-01-22T20:35:20.421Z,6.20
2018-01-22T20:37:24.484Z,6.10
2018-01-22T20:39:27.829Z,6.10
2018-01-22T20:41:31.336Z,6.10
2018-01-22T20:43:34.729Z,6.00
2018-01-22T20:45:38.051Z,6.00
2018-01-22T20:47:41.629Z,6.00
2018-01-22T20:49:45.049Z,6.00
2018-01-22T20:51:49.346Z,6.00
2018-01-22T20:53:53.600Z,6.00
2018-01-22T20:55:57.702Z,6.00
2018-01-22T20:58:01.080Z,6.00
2018-01-22T21:00:05.293Z,6.00
2018-01-22T21:02:08.737Z,6.00
2018-01-22T21:04:12.486Z,6.00
2018-01-22T21:06:16.270Z,6.00
2018-01-22T21:08:19.801Z,6.00
2018-01-22T21:10:24.138Z,6.00
2018-01-22T21:12:27.488Z,6.00
2018-01-22T21:14:30.885Z,6.00
2018-01-22T21:16:34.260Z,6.00
2018-01-22T21:18:37.585Z,6.00
2018-01-22T21:20:41.702Z,5.90
2018-01-22T21:22:45.795Z,5.90
2018-01-22T21:24:49.237Z,5.90
2018-01-22T21:26:52.548Z,5.90
2018-01-22T21:28:55.873Z,5.90
2018-01-22T21:30:59.185Z,5.90
2018-01-22T21:33:02.890Z,5.90
2018-01-22T21:35:06.777Z,5.90
2018-01-22T21:37:10.866Z,5.80
2018-01-22T21:39:14.189Z,5.80
2018-01-22T21:41:17.555Z,5.80
2018-01-22T21:43:21.636Z,5.90
2018-01-22T21:45:24.963Z,5.80
2018-01-22T21:47:28.306Z,5.80
2018-01-22T21:49:31.613Z,5.90
2018-01-22T21:51:34.933Z,5.90
2018-01-22T21:53:38.294Z,6.00
2018-01-22T21:55:41.694Z,5.90
2018-01-22T21:57:45.013Z,5.90
2018-01-22T21:59:49.093Z,5.90
2018-01-22T22:01:52.416Z,5.90
2018-01-22T22:03:56.518Z,5.90
2018-01-22T22:06:00.596Z,5.90
2018-01-22T22:08:03.943Z,5.90
2018-01-22T22:10:07.321Z,5.90
2018-01-22T22:12:10.606Z,5.80
2018-01-22T22:14:14.691Z,5.80
2018-01-22T22:16:18.053Z,5.80
2018-01-22T22:18:21.384Z,5.80
2018-01-22T22:20:24.708Z,5.80
2018-01-22T22:22:28.055Z,5.80
2018-01-22T22:24:31.377Z,5.80
2018-01-22T22:26:34.724Z,5.80
2018-01-22T22:28:38.045Z,5.80
2018-01-22T22:30:42.130Z,6.00
2018-01-22T22:32:45.491Z,5.90
2018-01-22T22:34:48.823Z,5.90
2018-01-22T22:36:52.130Z,5.90
2018-01-22T22:38:56.229Z,5.90
2018-01-22T22:40:59.545Z,5.80
2018-01-22T22:43:02.993Z,5.90
2018-01-22T22:45:07.152Z,5.80
2018-01-22T22:47:10.523Z,5.80
2018-01-22T22:49:16.216Z,5.80
2018-01-22T22:51:19.612Z,5.80
2018-01-22T22:53:23.205Z,5.80
2018-01-22T22:55:26.534Z,5.80
2018-01-22T22:57:29.910Z,5.80
2018-01-22T22:59:33.378Z,5.80
2018-01-22T23:01:36.756Z,5.80
2018-01-22T23:03:40.107Z,5.80
2018-01-22T23:05:44.316Z,5.70
2018-01-22T23:07:47.853Z,5.70
2018-01-22T23:09:51.525Z,5.70
2018-01-22T23:11:55.072Z,5.70
2018-01-22T23:13:58.911Z,5.70
2018-01-22T23:16:02.258Z,5.70
2018-01-22T23:18:07.588Z,5.70
2018-01-22T23:20:11.572Z,5.70
2018-01-22T23:22:15.780Z,5.70
2018-01-22T23:24:19.248Z,5.70
2018-01-22T23:26:22.670Z,5.70
2018-01-22T23:28:26.049Z,5.60
2018-01-22T23:30:30.141Z,5.60
2018-01-22T23:32:33.487Z,5.60
2018-01-22T23:34:36.832Z,5.60
2018-01-22T23:36:41.103Z,5.60
2018-01-22T23:38:44.466Z,5.60
2018-01-22T23:40:47.854Z,5.60
2018-01-22T23:42:51.190Z,5.60
2018-01-22T23:44:54.543Z,5.70
2018-01-22T23:46:57.879Z,5.70
2018-01-22T23:49:01.272Z,5.80
2018-01-22T23:51:04.616Z,5.80
2018-01-22T23:53:07.954Z,5.80
2018-01-22T23:55:11.359Z,5.80
2018-01-22T23:57:14.708Z,5.80
2018-01-22T23:59:18.037Z,5.80
